sensor_id;sensor_type;location;lat;lon;timestamp;temperature;humidity
27896;DHT22;15241;48.374;10.876;2023-05-10T00:00:30;15.80;99.90
27896;DHT22;15241;48.374;10.876;2023-05-10T00:05:29;15.80;99.90
27896;DHT22;15241;48.374;10.876;2023-05-10T00:10:28;15.90;99.90
27896;DHT22;15241;48.374;10.876;2023-05-10T00:15:26;15.70;99.90
27896;DHT22;15241;48.374;10.876;2023-05-10T00:20:26;15.60;99.90
27896;DHT22;15241;48.374;10.876;2023-05-10T00:25:25;15.40;99.90
27896;DHT22;15241;48.374;10.876;2023-05-10T00:30:24;15.40;99.90
27896;DHT22;15241;48.374;10.876;2023-05-10T00:35:24;15.50;99.90
27896;DHT22;15241;48.374;10.876;2023-05-10T00:45:35;15.60;99.90
27896;DHT22;15241;48.374;10.876;2023-05-10T00:50:34;15.50;99.90
27896;DHT22;15241;48.374;10.876;2023-05-10T00:55:52;15.60;99.90
27896;DHT22;15241;48.374;10.876;2023-05-10T01:00:51;15.60;99.90
27896;DHT22;15241;48.374;10.876;2023-05-10T01:10:58;15.40;99.90
27896;DHT22;15241;48.374;10.876;2023-05-10T01:15:58;15.50;99.90
27896;DHT22;15241;48.374;10.876;2023-05-10T01:21:01;15.40;99.90
27896;DHT22;15241;48.374;10.876;2023-05-10T01:36:58;15.20;99.90
27896;DHT22;15241;48.374;10.876;2023-05-10T01:42:00;15.30;99.90
27896;DHT22;15241;48.374;10.876;2023-05-10T01:47:03;15.20;99.90
27896;DHT22;15241;48.374;10.876;2023-05-10T01:52:06;15.20;99.90
27896;DHT22;15241;48.374;10.876;2023-05-10T01:57:06;15.30;99.90
27896;DHT22;15241;48.374;10.876;2023-05-10T02:02:06;15.10;99.90
27896;DHT22;15241;48.374;10.876;2023-05-10T02:07:06;15.00;99.90
27896;DHT22;15241;48.374;10.876;2023-05-10T02:12:07;15.00;99.90
27896;DHT22;15241;48.374;10.876;2023-05-10T02:17:07;14.80;99.90
27896;DHT22;15241;48.374;10.876;2023-05-10T02:22:07;14.90;99.90
27896;DHT22;15241;48.374;10.876;2023-05-10T02:27:07;14.90;99.90
27896;DHT22;15241;48.374;10.876;2023-05-10T02:32:07;14.90;99.90
27896;DHT22;15241;48.374;10.876;2023-05-10T02:37:10;14.80;99.90
27896;DHT22;15241;48.374;10.876;2023-05-10T02:42:10;14.70;99.90
27896;DHT22;15241;48.374;10.876;2023-05-10T02:47:10;14.70;99.90
27896;DHT22;15241;48.374;10.876;2023-05-10T02:52:11;14.60;99.90
27896;DHT22;15241;48.374;10.876;2023-05-10T02:57:15;14.60;99.90
27896;DHT22;15241;48.374;10.876;2023-05-10T03:02:14;14.60;99.90
27896;DHT22;15241;48.374;10.876;2023-05-10T03:07:13;14.60;99.90
27896;DHT22;15241;48.374;10.876;2023-05-10T03:12:15;14.60;99.90
27896;DHT22;15241;48.374;10.876;2023-05-10T03:17:20;14.70;99.90
27896;DHT22;15241;48.374;10.876;2023-05-10T03:22:23;14.60;99.90
27896;DHT22;15241;48.374;10.876;2023-05-10T03:27:23;14.60;99.90
27896;DHT22;15241;48.374;10.876;2023-05-10T03:32:23;14.60;99.90
27896;DHT22;15241;48.374;10.876;2023-05-10T03:37:22;14.60;99.90
27896;DHT22;15241;48.374;10.876;2023-05-10T03:42:21;14.50;99.90
27896;DHT22;15241;48.374;10.876;2023-05-10T03:47:20;14.40;99.90
27896;DHT22;15241;48.374;10.876;2023-05-10T03:52:19;14.50;99.90
27896;DHT22;15241;48.374;10.876;2023-05-10T03:57:18;14.50;99.90
27896;DHT22;15241;48.374;10.876;2023-05-10T04:02:17;14.70;99.90
27896;DHT22;15241;48.374;10.876;2023-05-10T04:07:16;14.60;99.90
27896;DHT22;15241;48.374;10.876;2023-05-10T04:12:15;14.60;99.90
27896;DHT22;15241;48.374;10.876;2023-05-10T04:17:13;14.60;99.90
27896;DHT22;15241;48.374;10.876;2023-05-10T04:22:12;14.60;99.90
27896;DHT22;15241;48.374;10.876;2023-05-10T04:27:11;14.50;99.90
27896;DHT22;15241;48.374;10.876;2023-05-10T04:32:10;14.60;99.90
27896;DHT22;15241;48.374;10.876;2023-05-10T04:37:09;14.70;99.90
27896;DHT22;15241;48.374;10.876;2023-05-10T04:42:08;14.70;99.90
27896;DHT22;15241;48.374;10.876;2023-05-10T04:47:08;14.70;99.90
27896;DHT22;15241;48.374;10.876;2023-05-10T04:52:07;14.80;99.90
27896;DHT22;15241;48.374;10.876;2023-05-10T04:57:06;14.80;99.90
27896;DHT22;15241;48.374;10.876;2023-05-10T05:02:05;14.80;99.90
27896;DHT22;15241;48.374;10.876;2023-05-10T05:07:04;14.80;99.90
27896;DHT22;15241;48.374;10.876;2023-05-10T05:12:04;15.00;99.90
27896;DHT22;15241;48.374;10.876;2023-05-10T05:17:03;15.00;99.90
27896;DHT22;15241;48.374;10.876;2023-05-10T05:22:02;15.00;99.90
27896;DHT22;15241;48.374;10.876;2023-05-10T05:27:01;15.10;99.90
27896;DHT22;15241;48.374;10.876;2023-05-10T05:32:00;15.10;99.90
27896;DHT22;15241;48.374;10.876;2023-05-10T05:36:59;15.10;99.90
27896;DHT22;15241;48.374;10.876;2023-05-10T05:41:58;15.20;99.90
27896;DHT22;15241;48.374;10.876;2023-05-10T05:46:57;15.10;99.90
27896;DHT22;15241;48.374;10.876;2023-05-10T05:51:59;15.20;99.90
27896;DHT22;15241;48.374;10.876;2023-05-10T05:56:58;15.20;99.90
27896;DHT22;15241;48.374;10.876;2023-05-10T06:01:58;15.30;99.90
27896;DHT22;15241;48.374;10.876;2023-05-10T06:06:56;15.10;99.90
27896;DHT22;15241;48.374;10.876;2023-05-10T06:11:55;15.20;99.90
27896;DHT22;15241;48.374;10.876;2023-05-10T06:16:54;15.40;99.90
27896;DHT22;15241;48.374;10.876;2023-05-10T06:21:53;15.40;99.90
27896;DHT22;15241;48.374;10.876;2023-05-10T06:26:52;15.50;99.90
27896;DHT22;15241;48.374;10.876;2023-05-10T06:31:51;15.30;99.90
27896;DHT22;15241;48.374;10.876;2023-05-10T06:36:50;15.20;99.90
27896;DHT22;15241;48.374;10.876;2023-05-10T06:41:49;15.30;99.90
27896;DHT22;15241;48.374;10.876;2023-05-10T06:46:48;15.50;99.90
27896;DHT22;15241;48.374;10.876;2023-05-10T06:51:47;15.50;99.90
27896;DHT22;15241;48.374;10.876;2023-05-10T06:56:46;15.60;99.90
27896;DHT22;15241;48.374;10.876;2023-05-10T07:01:45;15.80;99.90
27896;DHT22;15241;48.374;10.876;2023-05-10T07:06:44;15.90;99.90
27896;DHT22;15241;48.374;10.876;2023-05-10T07:11:43;16.00;99.90
27896;DHT22;15241;48.374;10.876;2023-05-10T07:16:41;16.10;99.90
27896;DHT22;15241;48.374;10.876;2023-05-10T07:21:40;16.50;99.90
27896;DHT22;15241;48.374;10.876;2023-05-10T07:26:39;16.70;99.90
27896;DHT22;15241;48.374;10.876;2023-05-10T07:31:38;16.90;99.90
27896;DHT22;15241;48.374;10.876;2023-05-10T07:36:37;17.00;99.90
27896;DHT22;15241;48.374;10.876;2023-05-10T07:41:36;17.30;99.90
27896;DHT22;15241;48.374;10.876;2023-05-10T07:46:35;17.50;99.90
27896;DHT22;15241;48.374;10.876;2023-05-10T07:51:34;17.60;99.90
27896;DHT22;15241;48.374;10.876;2023-05-10T07:56:33;17.60;99.90
27896;DHT22;15241;48.374;10.876;2023-05-10T08:01:33;17.70;99.90
27896;DHT22;15241;48.374;10.876;2023-05-10T08:06:32;17.70;99.90
27896;DHT22;15241;48.374;10.876;2023-05-10T08:11:31;17.70;99.90
27896;DHT22;15241;48.374;10.876;2023-05-10T08:16:30;18.10;99.90
27896;DHT22;15241;48.374;10.876;2023-05-10T08:21:29;18.30;99.90
27896;DHT22;15241;48.374;10.876;2023-05-10T08:26:28;18.20;99.90
27896;DHT22;15241;48.374;10.876;2023-05-10T08:31:27;18.10;99.90
27896;DHT22;15241;48.374;10.876;2023-05-10T08:36:26;18.30;99.90
27896;DHT22;15241;48.374;10.876;2023-05-10T08:41:26;18.50;99.90
27896;DHT22;15241;48.374;10.876;2023-05-10T08:46:27;18.30;99.90
27896;DHT22;15241;48.374;10.876;2023-05-10T08:51:28;18.40;99.90
27896;DHT22;15241;48.374;10.876;2023-05-10T08:56:28;18.30;99.90
27896;DHT22;15241;48.374;10.876;2023-05-10T09:01:27;18.20;99.90
27896;DHT22;15241;48.374;10.876;2023-05-10T09:06:27;18.50;99.90
27896;DHT22;15241;48.374;10.876;2023-05-10T09:11:26;18.60;99.90
27896;DHT22;15241;48.374;10.876;2023-05-10T09:16:26;18.50;99.90
27896;DHT22;15241;48.374;10.876;2023-05-10T09:21:25;18.40;99.90
27896;DHT22;15241;48.374;10.876;2023-05-10T09:26:25;18.60;99.90
27896;DHT22;15241;48.374;10.876;2023-05-10T09:31:24;19.00;99.90
27896;DHT22;15241;48.374;10.876;2023-05-10T09:36:23;19.00;99.90
27896;DHT22;15241;48.374;10.876;2023-05-10T09:41:23;18.80;99.90
27896;DHT22;15241;48.374;10.876;2023-05-10T09:46:22;18.50;99.90
27896;DHT22;15241;48.374;10.876;2023-05-10T09:51:21;18.40;99.90
27896;DHT22;15241;48.374;10.876;2023-05-10T09:56:34;18.20;99.90
27896;DHT22;15241;48.374;10.876;2023-05-10T10:01:34;18.10;99.90
27896;DHT22;15241;48.374;10.876;2023-05-10T10:06:37;18.00;99.90
27896;DHT22;15241;48.374;10.876;2023-05-10T10:11:37;18.00;99.90
27896;DHT22;15241;48.374;10.876;2023-05-10T10:16:36;17.60;99.90
27896;DHT22;15241;48.374;10.876;2023-05-10T10:21:35;17.90;99.90
27896;DHT22;15241;48.374;10.876;2023-05-10T10:26:36;18.50;99.90
27896;DHT22;15241;48.374;10.876;2023-05-10T10:36:46;19.50;99.90
27896;DHT22;15241;48.374;10.876;2023-05-10T10:41:51;19.90;99.90
27896;DHT22;15241;48.374;10.876;2023-05-10T10:47:00;20.30;99.90
27896;DHT22;15241;48.374;10.876;2023-05-10T10:52:24;20.50;99.90
27896;DHT22;15241;48.374;10.876;2023-05-10T10:57:23;20.60;99.90
27896;DHT22;15241;48.374;10.876;2023-05-10T11:02:34;20.50;99.90
27896;DHT22;15241;48.374;10.876;2023-05-10T11:07:35;20.50;99.90
27896;DHT22;15241;48.374;10.876;2023-05-10T11:12:34;20.80;99.90
27896;DHT22;15241;48.374;10.876;2023-05-10T11:17:35;20.80;99.90
27896;DHT22;15241;48.374;10.876;2023-05-10T11:22:51;20.60;99.90
27896;DHT22;15241;48.374;10.876;2023-05-10T11:27:51;20.60;99.90
27896;DHT22;15241;48.374;10.876;2023-05-10T11:32:50;20.50;99.90
27896;DHT22;15241;48.374;10.876;2023-05-10T11:37:49;20.30;99.90
27896;DHT22;15241;48.374;10.876;2023-05-10T11:42:48;19.90;99.90
27896;DHT22;15241;48.374;10.876;2023-05-10T11:47:50;19.60;99.90
27896;DHT22;15241;48.374;10.876;2023-05-10T11:52:52;19.30;99.90
27896;DHT22;15241;48.374;10.876;2023-05-10T11:57:53;19.50;99.90
27896;DHT22;15241;48.374;10.876;2023-05-10T12:02:53;19.70;99.90
27896;DHT22;15241;48.374;10.876;2023-05-10T12:07:52;19.80;99.90
27896;DHT22;15241;48.374;10.876;2023-05-10T12:12:52;19.70;99.90
27896;DHT22;15241;48.374;10.876;2023-05-10T12:17:52;19.40;99.90
27896;DHT22;15241;48.374;10.876;2023-05-10T12:22:52;19.30;99.90
27896;DHT22;15241;48.374;10.876;2023-05-10T12:27:54;19.40;99.90
27896;DHT22;15241;48.374;10.876;2023-05-10T12:32:54;19.60;99.90
27896;DHT22;15241;48.374;10.876;2023-05-10T12:37:54;19.70;99.90
27896;DHT22;15241;48.374;10.876;2023-05-10T12:42:53;19.60;99.90
27896;DHT22;15241;48.374;10.876;2023-05-10T12:47:52;19.60;99.90
27896;DHT22;15241;48.374;10.876;2023-05-10T12:52:51;19.60;99.90
27896;DHT22;15241;48.374;10.876;2023-05-10T12:57:50;19.50;99.90
27896;DHT22;15241;48.374;10.876;2023-05-10T13:02:49;19.30;99.90
27896;DHT22;15241;48.374;10.876;2023-05-10T13:07:48;19.20;99.90
27896;DHT22;15241;48.374;10.876;2023-05-10T13:12:47;19.10;99.90
27896;DHT22;15241;48.374;10.876;2023-05-10T13:17:46;18.80;99.90
27896;DHT22;15241;48.374;10.876;2023-05-10T13:22:45;18.50;99.90
27896;DHT22;15241;48.374;10.876;2023-05-10T13:27:44;18.40;99.90
27896;DHT22;15241;48.374;10.876;2023-05-10T13:32:43;18.50;99.90
27896;DHT22;15241;48.374;10.876;2023-05-10T13:37:43;18.40;99.90
27896;DHT22;15241;48.374;10.876;2023-05-10T13:42:43;18.60;99.90
27896;DHT22;15241;48.374;10.876;2023-05-10T13:47:42;18.60;99.90
27896;DHT22;15241;48.374;10.876;2023-05-10T13:52:41;18.40;99.90
27896;DHT22;15241;48.374;10.876;2023-05-10T13:57:40;18.20;99.90
27896;DHT22;15241;48.374;10.876;2023-05-10T14:02:38;17.60;99.90
27896;DHT22;15241;48.374;10.876;2023-05-10T14:07:37;17.10;99.90
27896;DHT22;15241;48.374;10.876;2023-05-10T14:12:36;16.40;99.90
27896;DHT22;15241;48.374;10.876;2023-05-10T14:17:35;16.00;99.90
27896;DHT22;15241;48.374;10.876;2023-05-10T14:22:34;15.70;99.90
27896;DHT22;15241;48.374;10.876;2023-05-10T14:27:33;15.20;99.90
27896;DHT22;15241;48.374;10.876;2023-05-10T14:32:32;15.10;99.90
27896;DHT22;15241;48.374;10.876;2023-05-10T14:37:31;14.90;99.90
27896;DHT22;15241;48.374;10.876;2023-05-10T14:42:30;14.80;99.90
27896;DHT22;15241;48.374;10.876;2023-05-10T14:47:29;14.90;99.90
27896;DHT22;15241;48.374;10.876;2023-05-10T14:52:28;14.90;99.90
27896;DHT22;15241;48.374;10.876;2023-05-10T14:57:27;14.80;99.90
27896;DHT22;15241;48.374;10.876;2023-05-10T15:02:26;14.80;99.90
27896;DHT22;15241;48.374;10.876;2023-05-10T15:07:25;14.90;99.90
27896;DHT22;15241;48.374;10.876;2023-05-10T15:12:24;14.70;99.90
27896;DHT22;15241;48.374;10.876;2023-05-10T15:17:23;14.80;99.90
27896;DHT22;15241;48.374;10.876;2023-05-10T15:22:22;14.80;99.90
27896;DHT22;15241;48.374;10.876;2023-05-10T15:27:21;14.60;99.90
27896;DHT22;15241;48.374;10.876;2023-05-10T15:32:20;14.60;99.90
27896;DHT22;15241;48.374;10.876;2023-05-10T15:37:19;14.40;99.90
27896;DHT22;15241;48.374;10.876;2023-05-10T15:42:18;14.60;99.90
27896;DHT22;15241;48.374;10.876;2023-05-10T15:47:17;14.40;99.90
27896;DHT22;15241;48.374;10.876;2023-05-10T15:52:15;14.40;99.90
27896;DHT22;15241;48.374;10.876;2023-05-10T15:57:14;14.50;99.90
27896;DHT22;15241;48.374;10.876;2023-05-10T16:02:13;14.50;99.90
27896;DHT22;15241;48.374;10.876;2023-05-10T16:07:13;14.60;99.90
27896;DHT22;15241;48.374;10.876;2023-05-10T16:12:12;14.40;99.90
27896;DHT22;15241;48.374;10.876;2023-05-10T16:17:11;14.30;99.90
27896;DHT22;15241;48.374;10.876;2023-05-10T16:22:10;14.30;99.90
27896;DHT22;15241;48.374;10.876;2023-05-10T16:27:09;14.20;99.90
27896;DHT22;15241;48.374;10.876;2023-05-10T16:32:08;14.20;99.90
27896;DHT22;15241;48.374;10.876;2023-05-10T16:37:07;14.00;99.90
27896;DHT22;15241;48.374;10.876;2023-05-10T16:42:06;13.90;99.90
27896;DHT22;15241;48.374;10.876;2023-05-10T16:47:05;13.80;99.90
27896;DHT22;15241;48.374;10.876;2023-05-10T16:52:04;13.80;99.90
27896;DHT22;15241;48.374;10.876;2023-05-10T16:57:03;13.70;99.90
27896;DHT22;15241;48.374;10.876;2023-05-10T17:02:02;13.70;99.90
27896;DHT22;15241;48.374;10.876;2023-05-10T17:07:01;13.60;99.90
27896;DHT22;15241;48.374;10.876;2023-05-10T17:12:00;13.70;99.90
27896;DHT22;15241;48.374;10.876;2023-05-10T17:16:59;13.50;99.90
27896;DHT22;15241;48.374;10.876;2023-05-10T17:21:59;13.50;99.90
27896;DHT22;15241;48.374;10.876;2023-05-10T17:26:58;13.50;99.90
27896;DHT22;15241;48.374;10.876;2023-05-10T17:31:57;13.50;99.90
27896;DHT22;15241;48.374;10.876;2023-05-10T17:36:56;13.50;99.90
27896;DHT22;15241;48.374;10.876;2023-05-10T17:41:55;13.60;99.90
27896;DHT22;15241;48.374;10.876;2023-05-10T17:46:54;13.60;99.90
27896;DHT22;15241;48.374;10.876;2023-05-10T17:51:53;13.40;99.90
27896;DHT22;15241;48.374;10.876;2023-05-10T17:56:52;13.30;99.90
27896;DHT22;15241;48.374;10.876;2023-05-10T18:01:51;13.30;99.90
27896;DHT22;15241;48.374;10.876;2023-05-10T18:06:49;13.40;99.90
27896;DHT22;15241;48.374;10.876;2023-05-10T18:11:48;13.30;99.90
27896;DHT22;15241;48.374;10.876;2023-05-10T18:16:47;13.30;99.90
27896;DHT22;15241;48.374;10.876;2023-05-10T18:21:46;13.20;99.90
27896;DHT22;15241;48.374;10.876;2023-05-10T18:26:45;13.10;99.90
27896;DHT22;15241;48.374;10.876;2023-05-10T18:31:44;12.70;99.90
27896;DHT22;15241;48.374;10.876;2023-05-10T18:36:43;12.50;99.90
27896;DHT22;15241;48.374;10.876;2023-05-10T18:41:42;12.50;99.90
27896;DHT22;15241;48.374;10.876;2023-05-10T18:46:41;12.50;99.90
27896;DHT22;15241;48.374;10.876;2023-05-10T18:51:40;12.50;99.90
27896;DHT22;15241;48.374;10.876;2023-05-10T18:56:39;12.40;99.90
27896;DHT22;15241;48.374;10.876;2023-05-10T19:01:39;12.40;99.90
27896;DHT22;15241;48.374;10.876;2023-05-10T19:11:46;12.50;99.90
27896;DHT22;15241;48.374;10.876;2023-05-10T19:16:45;12.50;99.90
27896;DHT22;15241;48.374;10.876;2023-05-10T19:21:44;12.30;99.90
27896;DHT22;15241;48.374;10.876;2023-05-10T19:26:43;12.40;99.90
27896;DHT22;15241;48.374;10.876;2023-05-10T19:31:42;12.50;99.90
27896;DHT22;15241;48.374;10.876;2023-05-10T19:36:41;12.50;99.90
27896;DHT22;15241;48.374;10.876;2023-05-10T19:41:40;12.40;99.90
27896;DHT22;15241;48.374;10.876;2023-05-10T19:46:39;12.30;99.90
27896;DHT22;15241;48.374;10.876;2023-05-10T19:51:38;12.40;99.90
27896;DHT22;15241;48.374;10.876;2023-05-10T19:56:37;12.50;99.90
27896;DHT22;15241;48.374;10.876;2023-05-10T20:01:37;12.40;99.90
27896;DHT22;15241;48.374;10.876;2023-05-10T20:06:36;12.30;99.90
27896;DHT22;15241;48.374;10.876;2023-05-10T20:11:35;12.40;99.90
27896;DHT22;15241;48.374;10.876;2023-05-10T20:16:34;12.30;99.90
27896;DHT22;15241;48.374;10.876;2023-05-10T20:21:32;12.20;99.90
27896;DHT22;15241;48.374;10.876;2023-05-10T20:26:31;12.20;99.90
27896;DHT22;15241;48.374;10.876;2023-05-10T20:31:30;12.10;99.90
27896;DHT22;15241;48.374;10.876;2023-05-10T20:36:29;12.10;99.90
27896;DHT22;15241;48.374;10.876;2023-05-10T20:41:29;12.10;99.90
27896;DHT22;15241;48.374;10.876;2023-05-10T20:46:28;12.10;99.90
27896;DHT22;15241;48.374;10.876;2023-05-10T20:51:27;12.10;99.90
27896;DHT22;15241;48.374;10.876;2023-05-10T20:56:26;12.10;99.90
27896;DHT22;15241;48.374;10.876;2023-05-10T21:01:25;12.10;99.90
27896;DHT22;15241;48.374;10.876;2023-05-10T21:06:24;12.10;99.90
27896;DHT22;15241;48.374;10.876;2023-05-10T21:11:23;12.10;99.90
27896;DHT22;15241;48.374;10.876;2023-05-10T21:16:22;12.10;99.90
27896;DHT22;15241;48.374;10.876;2023-05-10T21:21:21;12.10;99.90
27896;DHT22;15241;48.374;10.876;2023-05-10T21:26:20;12.10;99.90
27896;DHT22;15241;48.374;10.876;2023-05-10T21:31:19;12.10;99.90
27896;DHT22;15241;48.374;10.876;2023-05-10T21:36:19;12.00;99.90
27896;DHT22;15241;48.374;10.876;2023-05-10T21:41:18;12.00;99.90
27896;DHT22;15241;48.374;10.876;2023-05-10T21:46:17;12.10;99.90
27896;DHT22;15241;48.374;10.876;2023-05-10T21:51:16;12.10;99.90
27896;DHT22;15241;48.374;10.876;2023-05-10T21:56:15;12.10;99.90
27896;DHT22;15241;48.374;10.876;2023-05-10T22:01:14;12.10;99.90
27896;DHT22;15241;48.374;10.876;2023-05-10T22:06:13;12.10;99.90
27896;DHT22;15241;48.374;10.876;2023-05-10T22:11:11;12.00;99.90
27896;DHT22;15241;48.374;10.876;2023-05-10T22:16:10;12.10;99.90
27896;DHT22;15241;48.374;10.876;2023-05-10T22:21:10;12.10;99.90
27896;DHT22;15241;48.374;10.876;2023-05-10T22:26:09;12.10;99.90
27896;DHT22;15241;48.374;10.876;2023-05-10T22:31:09;12.20;99.90
27896;DHT22;15241;48.374;10.876;2023-05-10T22:36:09;12.10;99.90
27896;DHT22;15241;48.374;10.876;2023-05-10T22:41:08;12.00;99.90
27896;DHT22;15241;48.374;10.876;2023-05-10T22:46:06;12.00;99.90
27896;DHT22;15241;48.374;10.876;2023-05-10T22:51:06;12.00;99.90
27896;DHT22;15241;48.374;10.876;2023-05-10T22:56:05;12.10;99.90
27896;DHT22;15241;48.374;10.876;2023-05-10T23:01:04;11.90;99.90
27896;DHT22;15241;48.374;10.876;2023-05-10T23:06:05;12.00;99.90
27896;DHT22;15241;48.374;10.876;2023-05-10T23:11:04;12.00;99.90
27896;DHT22;15241;48.374;10.876;2023-05-10T23:16:06;12.00;99.90
27896;DHT22;15241;48.374;10.876;2023-05-10T23:21:05;12.00;99.90
27896;DHT22;15241;48.374;10.876;2023-05-10T23:26:04;12.00;99.90
27896;DHT22;15241;48.374;10.876;2023-05-10T23:31:03;12.00;99.90
27896;DHT22;15241;48.374;10.876;2023-05-10T23:36:02;12.10;99.90
27896;DHT22;15241;48.374;10.876;2023-05-10T23:41:01;12.10;99.90
27896;DHT22;15241;48.374;10.876;2023-05-10T23:46:00;11.90;99.90
27896;DHT22;15241;48.374;10.876;2023-05-10T23:50:59;11.80;99.90
27896;DHT22;15241;48.374;10.876;2023-05-10T23:55:58;11.90;99.90
